Time;durP1;ratioP1;P1;durP2;ratioP2;P2;SDS_P1;SDS_P2;PMS_P1;PMS_P2;Temp;Humidity;BMP_temperature;BMP_pressure;BME280_temperature;BME280_humidity;BME280_pressure;Samples;Min_cycle;Max_cycle;Signal;HPM_P1;HPM_P2
2023/07/05 00:26:25;;;;;;;5.60;5.00;;;;;;;;;;4942243;28;20533;-85
2023/07/05 00:30:55;;;;;;;;;;;;;;;;;;;;;
2023/07/05 00:43:30;;;;;;;;;;;;;;;;;;;;;
2023/07/05 00:52:23;;;;;;;7.25;4.40;;;;;;;;;;4825327;29;20047;-87
2023/07/05 00:55:52;;;;;;;6.03;4.50;;;;;;;;;;4892688;29;20053;-85
2023/07/05 01:04:24;;;;;;;;;;;;;;;;;;;;;
2023/07/05 01:07:54;;;;;;;;;;;;;;;;;;;;;
2023/07/05 01:23:37;;;;;;;6.65;4.40;;;;;;;;;;4980469;28;20050;-84
2023/07/05 01:27:04;;;;;;;5.90;4.70;;;;;;;;;;4978961;28;20035;-86
2023/07/05 02:05:05;;;;;;;7.05;5.10;;;;;;;;;;4991997;28;20051;-83
2023/07/05 03:14:30;;;;;;;5.20;3.78;;;;;;;;;;4996239;28;20058;-83
2023/07/05 03:17:16;;;;;;;7.63;4.20;;;;;;;;;;4994053;28;20487;-85
2023/07/05 03:20:01;;;;;;;7.10;4.13;;;;;;;;;;4986203;28;20042;-84
2023/07/05 03:22:46;;;;;;;10.88;4.30;;;;;;;;;;4990445;28;20050;-85
2023/07/05 03:25:32;;;;;;;7.60;4.50;;;;;;;;;;5003093;28;20046;-85
2023/07/05 03:28:17;;;;;;;8.48;4.40;;;;;;;;;;5003785;28;20050;-85
2023/07/05 03:31:08;;;;;;;9.45;4.40;;;;;;;;;;5020509;28;20031;-85
2023/07/05 03:33:54;;;;;;;8.70;4.63;;;;;;;;;;5001140;28;20046;-85
2023/07/05 03:36:39;;;;;;;7.35;4.25;;;;;;;;;;5003906;28;20072;-87
2023/07/05 03:39:25;;;;;;;8.80;4.05;;;;;;;;;;5002944;28;20407;-86
2023/07/05 03:42:11;;;;;;;6.57;4.25;;;;;;;;;;5002626;28;20046;-86
2023/07/05 03:44:56;;;;;;;9.13;4.60;;;;;;;;;;4995862;28;20046;-86
2023/07/05 03:47:42;;;;;;;7.13;4.18;;;;;;;;;;4996992;28;20038;-86
2023/07/05 03:50:27;;;;;;;6.78;4.25;;;;;;;;;;4997187;28;20046;-86
2023/07/05 03:53:13;;;;;;;11.00;4.38;;;;;;;;;;4995827;28;20050;-86
2023/07/05 03:56:01;;;;;;;11.23;4.72;;;;;;;;;;4996703;28;20395;-86
2023/07/05 03:58:47;;;;;;;6.53;3.83;;;;;;;;;;4997028;28;20050;-87
2023/07/05 04:01:33;;;;;;;8.68;4.55;;;;;;;;;;4996513;28;20476;-86
2023/07/05 04:04:18;;;;;;;7.07;4.10;;;;;;;;;;4996525;28;20042;-86
2023/07/05 04:07:04;;;;;;;12.70;4.40;;;;;;;;;;4995461;28;20054;-87
2023/07/05 04:09:50;;;;;;;6.63;4.15;;;;;;;;;;4995274;28;20043;-87
2023/07/05 04:12:35;;;;;;;11.05;4.43;;;;;;;;;;4996331;28;20046;-87
2023/07/05 04:15:21;;;;;;;12.75;4.28;;;;;;;;;;4994137;28;20483;-86
2023/07/05 04:18:06;;;;;;;7.72;4.25;;;;;;;;;;5015748;28;20041;-86
2023/07/05 04:20:52;;;;;;;8.88;4.30;;;;;;;;;;5015873;28;20050;-86
2023/07/05 04:23:39;;;;;;;5.80;3.90;;;;;;;;;;5016139;28;20049;-86
2023/07/05 04:26:27;;;;;;;8.43;4.70;;;;;;;;;;5000545;28;20046;-86
2023/07/05 04:29:13;;;;;;;8.55;4.45;;;;;;;;;;5001127;28;20399;-86
2023/07/05 04:31:58;;;;;;;12.75;4.70;;;;;;;;;;5015399;28;20042;-86
2023/07/05 04:34:44;;;;;;;7.95;4.60;;;;;;;;;;5018700;28;20042;-85
2023/07/05 04:37:29;;;;;;;12.60;4.70;;;;;;;;;;5021085;28;20050;-86
2023/07/05 04:40:15;;;;;;;16.25;5.53;;;;;;;;;;5020972;28;20046;-85
2023/07/05 04:43:00;;;;;;;5.88;3.90;;;;;;;;;;5005727;28;20037;-85
2023/07/05 04:45:52;;;;;;;16.73;4.50;;;;;;;;;;5006654;28;20046;-86
2023/07/05 04:48:37;;;;;;;9.07;4.50;;;;;;;;;;5022922;28;20483;-87
2023/07/05 04:51:22;;;;;;;15.57;4.82;;;;;;;;;;5021726;28;20050;-85
2023/07/05 04:54:08;;;;;;;11.23;4.95;;;;;;;;;;5021445;28;20050;-86
2023/07/05 04:56:55;;;;;;;11.57;5.13;;;;;;;;;;5007695;28;20045;-86
2023/07/05 04:59:43;;;;;;;9.02;5.25;;;;;;;;;;5014927;28;20049;-84
2023/07/05 05:02:27;;;;;;;9.60;5.05;;;;;;;;;;5014898;28;20045;-84
2023/07/05 05:05:13;;;;;;;11.52;5.65;;;;;;;;;;5003479;28;20046;-86
2023/07/05 05:07:59;;;;;;;11.70;5.85;;;;;;;;;;5014802;28;20049;-87
2023/07/05 05:10:45;;;;;;;9.60;6.60;;;;;;;;;;5014471;28;20046;-86
2023/07/05 05:13:32;;;;;;;12.20;5.82;;;;;;;;;;5014616;28;20046;-86
2023/07/05 05:16:17;;;;;;;10.38;6.68;;;;;;;;;;5014241;28;20037;-87
2023/07/05 05:19:03;;;;;;;9.40;5.78;;;;;;;;;;5014622;28;20046;-86
2023/07/05 05:21:48;;;;;;;8.13;5.88;;;;;;;;;;5006434;28;20475;-87
2023/07/05 05:24:34;;;;;;;7.03;5.80;;;;;;;;;;4992525;28;20046;-86
2023/07/05 05:27:20;;;;;;;7.40;6.18;;;;;;;;;;5014186;28;20042;-86
2023/07/05 05:30:12;;;;;;;10.48;6.40;;;;;;;;;;5014294;28;20065;-86
2023/07/05 05:33:05;;;;;;;11.75;8.65;;;;;;;;;;4992449;28;20041;-86
2023/07/05 05:35:53;;;;;;;13.77;9.30;;;;;;;;;;4991991;28;20037;-86
2023/07/05 05:38:39;;;;;;;17.75;9.75;;;;;;;;;;4992740;28;20049;-84
2023/07/05 05:41:27;;;;;;;14.82;9.68;;;;;;;;;;5000155;28;20050;-87
2023/07/05 05:44:18;;;;;;;14.55;10.13;;;;;;;;;;5000125;28;20033;-88
2023/07/05 05:47:05;;;;;;;14.55;10.30;;;;;;;;;;5033983;28;20058;-86
2023/07/05 05:49:50;;;;;;;18.23;10.15;;;;;;;;;;4994022;28;20042;-87
2023/07/05 05:52:36;;;;;;;14.07;8.90;;;;;;;;;;5014747;28;20046;-85
2023/07/05 05:55:22;;;;;;;13.68;7.65;;;;;;;;;;4999081;28;20041;-88
2023/07/05 05:58:13;;;;;;;12.35;8.05;;;;;;;;;;5014131;28;20050;-86
2023/07/05 06:01:03;;;;;;;14.35;9.23;;;;;;;;;;5005515;28;20049;-86
2023/07/05 06:04:14;;;;;;;11.60;7.65;;;;;;;;;;5003027;28;20049;-86
2023/07/05 06:07:24;;;;;;;14.35;8.75;;;;;;;;;;4996494;28;20045;-86
2023/07/05 06:10:56;;;;;;;10.88;7.93;;;;;;;;;;5006460;28;20033;-87
2023/07/05 06:13:41;;;;;;;12.85;8.55;;;;;;;;;;5011539;28;20046;-87
2023/07/05 06:16:27;;;;;;;13.25;8.10;;;;;;;;;;5011987;28;20054;-85
2023/07/05 06:19:16;;;;;;;16.98;9.13;;;;;;;;;;5014200;28;20049;-85
2023/07/05 06:22:02;;;;;;;15.13;9.60;;;;;;;;;;5006326;28;20045;-80
2023/07/05 06:24:47;;;;;;;9.23;8.05;;;;;;;;;;5013371;28;20049;-76
2023/07/05 06:27:33;;;;;;;13.52;8.85;;;;;;;;;;5020253;28;20062;-76
2023/07/05 06:30:19;;;;;;;13.48;8.50;;;;;;;;;;5013723;28;20046;-76
2023/07/05 06:33:04;;;;;;;14.05;8.07;;;;;;;;;;5009255;28;20411;-77
2023/07/05 06:35:50;;;;;;;13.77;8.43;;;;;;;;;;5010767;28;20403;-77
2023/07/05 06:38:37;;;;;;;10.35;8.05;;;;;;;;;;5018618;28;20058;-76
2023/07/05 06:41:23;;;;;;;12.73;7.50;;;;;;;;;;5010711;28;20054;-74
2023/07/05 06:44:08;;;;;;;12.48;8.00;;;;;;;;;;5017325;28;20050;-73
2023/07/05 06:46:54;;;;;;;9.90;7.28;;;;;;;;;;5017446;28;20491;-74
2023/07/05 06:49:39;;;;;;;10.27;7.55;;;;;;;;;;5010404;28;20042;-74
2023/07/05 06:52:24;;;;;;;10.85;7.80;;;;;;;;;;5010764;28;20395;-76
2023/07/05 06:55:11;;;;;;;15.13;8.10;;;;;;;;;;5017480;28;20046;-75
2023/07/05 06:57:56;;;;;;;9.60;7.05;;;;;;;;;;5014327;28;20042;-75
2023/07/05 07:00:44;;;;;;;10.75;7.70;;;;;;;;;;5014580;28;20046;-76
2023/07/05 07:03:30;;;;;;;11.65;8.05;;;;;;;;;;5016036;28;20043;-75
2023/07/05 07:06:15;;;;;;;9.48;7.22;;;;;;;;;;5005350;28;20289;-76
2023/07/05 07:09:05;;;;;;;9.98;7.68;;;;;;;;;;5020288;28;20046;-75
2023/07/05 07:11:50;;;;;;;11.32;7.85;;;;;;;;;;5020211;28;20049;-75
2023/07/05 07:14:36;;;;;;;13.55;7.97;;;;;;;;;;4999798;28;20054;-76
2023/07/05 07:17:21;;;;;;;11.85;7.68;;;;;;;;;;5014064;28;20038;-77
2023/07/05 07:20:08;;;;;;;13.00;8.45;;;;;;;;;;5014125;28;20041;-80
2023/07/05 07:22:54;;;;;;;11.15;7.28;;;;;;;;;;5013836;28;20046;-77
2023/07/05 07:25:39;;;;;;;14.52;7.32;;;;;;;;;;5013462;28;20415;-76
2023/07/05 07:28:25;;;;;;;10.95;8.13;;;;;;;;;;5013815;28;20042;-76
2023/07/05 07:31:22;;;;;;;13.60;8.38;;;;;;;;;;5013527;28;20045;-76
2023/07/05 07:34:07;;;;;;;13.18;7.35;;;;;;;;;;5018968;28;20050;-76
2023/07/05 07:36:52;;;;;;;11.90;7.50;;;;;;;;;;5012829;28;20037;-76
2023/07/05 07:39:38;;;;;;;16.92;10.52;;;;;;;;;;5013198;28;20034;-76
2023/07/05 07:42:23;;;;;;;17.05;10.90;;;;;;;;;;5012267;28;20042;-76
2023/07/05 07:45:09;;;;;;;17.35;10.50;;;;;;;;;;5013058;28;20050;-77
2023/07/05 07:47:54;;;;;;;15.98;10.63;;;;;;;;;;5015736;28;20046;-78
2023/07/05 07:50:48;;;;;;;18.00;10.23;;;;;;;;;;5013769;28;20062;-76
2023/07/05 07:53:33;;;;;;;15.10;10.90;;;;;;;;;;5020154;28;20046;-77
2023/07/05 07:56:21;;;;;;;22.42;12.25;;;;;;;;;;5015779;28;20391;-78
2023/07/05 07:59:07;;;;;;;24.70;14.85;;;;;;;;;;5016040;28;20042;-77
2023/07/05 08:01:53;;;;;;;31.92;15.40;;;;;;;;;;5015681;28;20491;-77
2023/07/05 08:04:45;;;;;;;22.60;14.60;;;;;;;;;;5015624;28;20045;-74
2023/07/05 08:07:31;;;;;;;24.75;15.35;;;;;;;;;;5000764;28;20068;-75
2023/07/05 08:10:17;;;;;;;25.20;14.77;;;;;;;;;;5015794;28;20042;-76
2023/07/05 08:13:02;;;;;;;25.75;14.95;;;;;;;;;;5015287;28;20057;-75
2023/07/05 08:15:47;;;;;;;25.63;16.95;;;;;;;;;;5015576;28;20049;-75
2023/07/05 08:18:33;;;;;;;30.08;16.38;;;;;;;;;;5001038;28;20038;-75
2023/07/05 08:21:18;;;;;;;27.60;15.40;;;;;;;;;;5001229;28;20046;-74
2023/07/05 08:24:04;;;;;;;111.70;94.00;;;;;;;;;;5015767;28;20054;-75
2023/07/05 08:26:50;;;;;;;24.38;15.85;;;;;;;;;;5015209;28;20049;-74
2023/07/05 08:29:37;;;;;;;27.42;14.57;;;;;;;;;;5015359;28;20038;-75
2023/07/05 08:32:22;;;;;;;20.00;13.73;;;;;;;;;;5015406;28;20050;-75
2023/07/05 08:35:08;;;;;;;30.92;19.65;;;;;;;;;;5021968;28;20041;-74
2023/07/05 08:37:53;;;;;;;20.58;14.90;;;;;;;;;;5015696;28;20053;-75
2023/07/05 08:40:41;;;;;;;22.80;14.90;;;;;;;;;;5015053;28;20046;-75
2023/07/05 08:43:33;;;;;;;39.05;27.08;;;;;;;;;;5015358;28;20038;-75
2023/07/05 08:46:21;;;;;;;25.23;16.17;;;;;;;;;;5014653;28;20041;-74
2023/07/05 08:49:14;;;;;;;30.38;14.93;;;;;;;;;;5021908;28;20049;-76
2023/07/05 08:52:01;;;;;;;25.08;14.40;;;;;;;;;;5015433;28;20046;-76
2023/07/05 08:54:53;;;;;;;22.40;14.82;;;;;;;;;;5015003;28;20046;-77
2023/07/05 08:57:46;;;;;;;22.98;14.30;;;;;;;;;;5015027;28;20029;-76
2023/07/05 09:00:45;;;;;;;25.50;14.93;;;;;;;;;;5014542;28;20483;-76
2023/07/05 09:03:31;;;;;;;37.50;15.57;;;;;;;;;;5014914;28;20042;-75
2023/07/05 09:06:27;;;;;;;23.73;15.18;;;;;;;;;;5014455;28;20427;-76
2023/07/05 09:09:38;;;;;;;29.13;15.45;;;;;;;;;;5021562;28;20037;-74
2023/07/05 09:12:40;;;;;;;24.63;13.75;;;;;;;;;;5021174;28;20049;-76
2023/07/05 09:15:29;;;;;;;25.05;15.80;;;;;;;;;;4975550;28;20054;-77
2023/07/05 09:18:32;;;;;;;26.40;14.10;;;;;;;;;;4974286;28;20077;-76
2023/07/05 09:21:19;;;;;;;20.52;13.82;;;;;;;;;;4975563;28;20038;-76
2023/07/05 09:24:32;;;;;;;21.60;13.57;;;;;;;;;;4975475;28;20492;-77
2023/07/05 09:27:37;;;;;;;23.85;13.68;;;;;;;;;;4975051;28;20410;-76
2023/07/05 09:30:25;;;;;;;20.13;13.30;;;;;;;;;;4975187;28;20055;-77
2023/07/05 09:33:20;;;;;;;20.92;13.45;;;;;;;;;;4975884;28;20466;-77
2023/07/05 09:36:20;;;;;;;;;;;;;;;;;;4981997;28;20046;-77
2023/07/05 09:39:28;;;;;;;18.73;13.02;;;;;;;;;;4980331;28;19914;-77
2023/07/05 09:42:22;;;;;;;22.75;12.60;;;;;;;;;;4975067;28;20046;-77
2023/07/05 09:45:15;;;;;;;17.38;13.05;;;;;;;;;;4981809;28;20047;-77
2023/07/05 09:48:03;;;;;;;18.75;13.20;;;;;;;;;;4975332;28;20385;-77
2023/07/05 09:50:51;;;;;;;19.95;13.50;;;;;;;;;;4974222;28;20039;-77
2023/07/05 09:53:45;;;;;;;27.40;13.20;;;;;;;;;;4981284;28;20051;-78
2023/07/05 09:56:30;;;;;;;17.23;13.32;;;;;;;;;;4981485;28;20031;-77
2023/07/05 09:59:21;;;;;;;19.33;12.52;;;;;;;;;;4975126;28;20046;-78
2023/07/05 10:02:10;;;;;;;17.63;13.63;;;;;;;;;;4974915;28;20484;-77
2023/07/05 10:04:58;;;;;;;19.33;13.38;;;;;;;;;;4980775;28;20047;-77
2023/07/05 10:07:59;;;;;;;19.65;14.20;;;;;;;;;;4974065;28;20043;-78
2023/07/05 10:10:45;;;;;;;15.85;12.95;;;;;;;;;;4974585;28;20050;-78
2023/07/05 10:13:31;;;;;;;19.60;13.25;;;;;;;;;;4986057;28;20042;-77
2023/07/05 10:16:17;;;;;;;18.63;13.10;;;;;;;;;;4994395;28;20391;-76
2023/07/05 10:19:03;;;;;;;20.63;13.43;;;;;;;;;;5000306;28;20042;-78
2023/07/05 10:21:52;;;;;;;20.20;12.30;;;;;;;;;;5000631;28;20476;-76
2023/07/05 10:24:43;;;;;;;17.10;13.63;;;;;;;;;;4993985;28;20046;-77
2023/07/05 10:27:35;;;;;;;21.08;13.38;;;;;;;;;;5000166;28;20046;-76
2023/07/05 10:30:21;;;;;;;18.67;13.68;;;;;;;;;;5002751;28;20042;-77
2023/07/05 10:33:20;;;;;;;20.75;13.55;;;;;;;;;;4997709;28;20053;-76
2023/07/05 10:36:08;;;;;;;22.25;13.18;;;;;;;;;;5004496;28;20038;-76
2023/07/05 10:38:55;;;;;;;21.88;12.68;;;;;;;;;;4997956;28;20050;-77
2023/07/05 10:41:42;;;;;;;22.60;13.63;;;;;;;;;;5004609;28;20046;-77
2023/07/05 10:44:32;;;;;;;15.27;12.90;;;;;;;;;;4998010;28;20046;-77
2023/07/05 10:47:19;;;;;;;23.77;12.82;;;;;;;;;;4997631;28;20043;-77
2023/07/05 10:50:06;;;;;;;15.48;12.00;;;;;;;;;;5004349;28;20511;-77
2023/07/05 10:52:58;;;;;;;17.45;12.35;;;;;;;;;;5004178;28;20043;-76
2023/07/05 10:55:53;;;;;;;17.42;12.57;;;;;;;;;;4997639;28;20042;-76
2023/07/05 10:58:45;;;;;;;14.98;12.07;;;;;;;;;;4997538;28;20400;-75
2023/07/05 11:01:45;;;;;;;21.10;12.85;;;;;;;;;;4997752;28;20468;-75
2023/07/05 11:04:33;;;;;;;13.65;11.45;;;;;;;;;;4997440;28;20046;-77
2023/07/05 11:07:20;;;;;;;15.77;12.52;;;;;;;;;;4997175;28;20050;-76
2023/07/05 11:10:13;;;;;;;18.15;11.73;;;;;;;;;;4997386;28;20046;-77
2023/07/05 11:12:58;;;;;;;25.88;12.43;;;;;;;;;;4996926;28;20038;-77
2023/07/05 11:15:46;;;;;;;15.75;12.95;;;;;;;;;;4997143;28;20039;-76
2023/07/05 11:18:42;;;;;;;19.33;11.82;;;;;;;;;;4984654;28;20050;-76
2023/07/05 11:21:44;;;;;;;14.48;11.50;;;;;;;;;;4988794;28;20050;-76
2023/07/05 11:24:38;;;;;;;20.65;11.80;;;;;;;;;;5004082;28;20046;-76
2023/07/05 11:27:24;;;;;;;17.27;12.15;;;;;;;;;;5003258;28;20480;-76
2023/07/05 11:30:43;;;;;;;18.08;11.93;;;;;;;;;;5003699;28;20050;-75
2023/07/05 11:33:28;;;;;;;14.57;12.43;;;;;;;;;;4997011;28;20038;-76
2023/07/05 11:36:31;;;;;;;14.50;12.27;;;;;;;;;;4997307;28;20046;-78
2023/07/05 11:39:39;;;;;;;16.38;11.73;;;;;;;;;;5003351;28;20046;-79
2023/07/05 11:42:26;;;;;;;14.73;12.00;;;;;;;;;;4995829;28;20050;-78
2023/07/05 11:45:21;;;;;;;16.55;11.77;;;;;;;;;;4996694;28;20045;-77
2023/07/05 11:48:40;;;;;;;16.80;11.10;;;;;;;;;;5015938;28;20045;-78
2023/07/05 11:51:30;;;;;;;17.33;12.60;;;;;;;;;;5023475;28;20109;-77
2023/07/05 11:54:19;;;;;;;12.68;10.88;;;;;;;;;;5022742;28;20045;-77
2023/07/05 11:57:10;;;;;;;16.30;11.50;;;;;;;;;;5022670;28;20042;-77
2023/07/05 12:00:23;;;;;;;13.80;11.45;;;;;;;;;;5022540;28;20057;-77
2023/07/05 12:03:31;;;;;;;16.30;11.43;;;;;;;;;;5012815;28;20046;-76
2023/07/05 12:06:23;;;;;;;17.23;11.38;;;;;;;;;;5022661;28;20041;-76
2023/07/05 12:09:27;;;;;;;17.48;11.38;;;;;;;;;;5022358;28;20045;-77
2023/07/05 12:12:13;;;;;;;14.52;11.10;;;;;;;;;;5015806;28;20049;-77
2023/07/05 12:14:59;;;;;;;15.30;10.82;;;;;;;;;;5015457;28;20050;-77
2023/07/05 12:17:46;;;;;;;14.93;11.20;;;;;;;;;;5022083;28;20499;-77
2023/07/05 12:20:39;;;;;;;13.80;11.02;;;;;;;;;;5015936;28;20041;-79
2023/07/05 12:23:29;;;;;;;17.05;11.45;;;;;;;;;;5022126;28;20479;-78
2023/07/05 12:26:34;;;;;;;16.73;11.40;;;;;;;;;;5015736;28;20046;-77
2023/07/05 12:29:22;;;;;;;;;;;;;;;;;;5015234;28;20395;-77
2023/07/05 12:32:16;;;;;;;20.65;12.43;;;;;;;;;;5021816;28;19913;-75
2023/07/05 12:35:11;;;;;;;13.70;10.88;;;;;;;;;;5021922;28;20041;-81
2023/07/05 12:37:58;;;;;;;13.38;11.20;;;;;;;;;;5015392;28;20042;-77
2023/07/05 12:40:54;;;;;;;20.30;11.38;;;;;;;;;;5022048;28;20049;-78
2023/07/05 12:43:40;;;;;;;16.23;12.32;;;;;;;;;;5015118;28;20064;-78
2023/07/05 12:46:28;;;;;;;18.27;11.88;;;;;;;;;;5021802;28;20049;-76
2023/07/05 12:49:30;;;;;;;19.40;12.77;;;;;;;;;;5015217;28;20046;-77
2023/07/05 12:52:22;;;;;;;19.23;12.48;;;;;;;;;;5021579;28;20403;-76
2023/07/05 12:55:25;;;;;;;15.27;12.02;;;;;;;;;;5015213;28;20042;-77
2023/07/05 12:58:13;;;;;;;18.73;12.35;;;;;;;;;;5015318;28;20049;-76
2023/07/05 13:01:00;;;;;;;17.13;12.43;;;;;;;;;;5021529;28;20054;-77
2023/07/05 13:03:48;;;;;;;13.50;12.07;;;;;;;;;;5021808;28;20045;-76
2023/07/05 13:06:34;;;;;;;18.35;12.05;;;;;;;;;;5014183;28;20038;-77
2023/07/05 13:09:30;;;;;;;16.30;11.48;;;;;;;;;;5021468;28;20403;-77
2023/07/05 13:12:16;;;;;;;17.50;11.65;;;;;;;;;;5014452;28;20391;-77
2023/07/05 13:15:07;;;;;;;16.40;11.95;;;;;;;;;;5021537;28;20042;-77
2023/07/05 13:17:53;;;;;;;18.60;12.15;;;;;;;;;;5014568;28;20033;-77
2023/07/05 13:20:39;;;;;;;13.70;11.40;;;;;;;;;;5014115;28;20050;-77
2023/07/05 13:23:28;;;;;;;16.80;12.38;;;;;;;;;;5020344;28;20046;-77
2023/07/05 13:26:35;;;;;;;15.70;12.80;;;;;;;;;;5020515;28;20037;-77
2023/07/05 13:29:36;;;;;;;16.33;12.73;;;;;;;;;;5014198;28;20387;-78
2023/07/05 13:32:25;;;;;;;21.75;13.13;;;;;;;;;;5020898;28;20053;-77
2023/07/05 13:35:11;;;;;;;17.33;12.52;;;;;;;;;;5014479;28;20050;-77
2023/07/05 13:37:59;;;;;;;19.08;13.73;;;;;;;;;;5014194;28;20463;-77
2023/07/05 13:40:58;;;;;;;21.95;13.82;;;;;;;;;;5014061;28;20387;-78
2023/07/05 13:43:43;;;;;;;17.35;14.27;;;;;;;;;;5020736;28;20050;-77
2023/07/05 13:46:29;;;;;;;22.17;13.57;;;;;;;;;;5014418;28;20038;-77
2023/07/05 13:49:16;;;;;;;19.90;13.77;;;;;;;;;;5020451;28;20042;-77
2023/07/05 13:52:02;;;;;;;18.10;14.10;;;;;;;;;;5020875;28;20045;-76
2023/07/05 13:54:48;;;;;;;19.05;13.65;;;;;;;;;;5013671;28;20050;-76
2023/07/05 13:57:34;;;;;;;15.70;13.05;;;;;;;;;;5014639;28;20467;-76
2023/07/05 14:00:19;;;;;;;18.58;14.07;;;;;;;;;;5020472;28;20046;-76
2023/07/05 14:03:06;;;;;;;19.15;13.90;;;;;;;;;;5013726;28;20046;-78
2023/07/05 14:05:51;;;;;;;25.30;14.02;;;;;;;;;;5019057;28;20046;-78
2023/07/05 14:08:36;;;;;;;19.08;14.57;;;;;;;;;;5013530;28;20479;-78
2023/07/05 14:11:28;;;;;;;19.75;14.48;;;;;;;;;;5020245;28;20045;-77
2023/07/05 14:14:14;;;;;;;18.98;14.75;;;;;;;;;;5013323;28;20054;-76
2023/07/05 14:16:59;;;;;;;24.17;15.50;;;;;;;;;;5013712;28;20034;-76
2023/07/05 14:19:46;;;;;;;19.02;15.38;;;;;;;;;;5013505;28;20045;-74
2023/07/05 14:22:31;;;;;;;21.92;15.23;;;;;;;;;;5013352;28;20045;-75
2023/07/05 14:25:21;;;;;;;27.73;16.00;;;;;;;;;;5013156;28;20037;-75
2023/07/05 14:28:06;;;;;;;26.13;15.80;;;;;;;;;;5013162;28;20472;-76
2023/07/05 14:30:52;;;;;;;22.17;14.68;;;;;;;;;;5013632;28;20038;-77
2023/07/05 14:33:39;;;;;;;21.50;14.93;;;;;;;;;;5013779;28;20041;-75
2023/07/05 14:36:26;;;;;;;26.08;16.58;;;;;;;;;;5013481;28;20045;-75
2023/07/05 14:39:12;;;;;;;27.13;15.15;;;;;;;;;;5020061;28;20050;-75
2023/07/05 14:41:57;;;;;;;19.15;14.40;;;;;;;;;;5013590;28;20395;-75
2023/07/05 14:44:42;;;;;;;21.60;13.60;;;;;;;;;;5019898;28;20407;-74
2023/07/05 14:47:28;;;;;;;19.40;14.55;;;;;;;;;;5013219;28;20037;-75
2023/07/05 14:50:15;;;;;;;24.45;14.27;;;;;;;;;;5013128;28;20050;-76
2023/07/05 14:53:03;;;;;;;23.77;15.43;;;;;;;;;;5013444;28;20041;-75
2023/07/05 14:55:49;;;;;;;21.92;15.85;;;;;;;;;;5019838;28;20038;-75
2023/07/05 14:58:34;;;;;;;22.95;16.55;;;;;;;;;;4998445;28;20050;-75
2023/07/05 15:01:21;;;;;;;32.90;23.35;;;;;;;;;;5019735;28;20112;-75
2023/07/05 15:04:06;;;;;;;28.10;18.20;;;;;;;;;;5012712;28;20045;-75
2023/07/05 15:06:53;;;;;;;20.27;15.20;;;;;;;;;;5020242;28;20050;-76
2023/07/05 15:09:38;;;;;;;24.17;13.85;;;;;;;;;;5013174;28;20038;-75
2023/07/05 15:12:24;;;;;;;26.45;16.02;;;;;;;;;;5019506;28;20038;-75
2023/07/05 15:15:23;;;;;;;16.48;14.05;;;;;;;;;;5004620;28;20499;-75
2023/07/05 15:18:08;;;;;;;20.05;13.18;;;;;;;;;;5022950;28;20045;-75
2023/07/05 15:20:53;;;;;;;23.08;15.43;;;;;;;;;;5016850;28;20046;-75
2023/07/05 15:23:39;;;;;;;19.13;14.48;;;;;;;;;;5016701;28;20046;-75
2023/07/05 15:26:25;;;;;;;20.23;13.45;;;;;;;;;;5016324;28;20042;-75
2023/07/05 15:29:18;;;;;;;17.38;13.77;;;;;;;;;;5023398;28;20432;-76
2023/07/05 15:32:04;;;;;;;23.10;14.20;;;;;;;;;;5016786;28;20058;-75
2023/07/05 15:34:49;;;;;;;28.13;18.25;;;;;;;;;;5022984;28;20419;-76
2023/07/05 15:37:35;;;;;;;51.03;24.05;;;;;;;;;;5016055;28;20050;-75
2023/07/05 15:40:22;;;;;;;79.93;32.55;;;;;;;;;;5015801;28;20042;-76
2023/07/05 15:43:09;;;;;;;74.28;30.95;;;;;;;;;;5020818;28;20042;-75
2023/07/05 15:45:56;;;;;;;33.85;19.58;;;;;;;;;;5021251;28;20491;-75
2023/07/05 15:48:43;;;;;;;40.25;20.30;;;;;;;;;;5021928;28;20037;-75
2023/07/05 15:51:28;;;;;;;43.17;23.20;;;;;;;;;;5021343;28;20046;-75
2023/07/05 15:54:14;;;;;;;27.60;16.08;;;;;;;;;;5015400;28;20037;-75
2023/07/05 15:56:59;;;;;;;21.23;13.93;;;;;;;;;;5015940;28;20050;-75
2023/07/05 15:59:57;;;;;;;19.65;15.10;;;;;;;;;;5015262;28;20045;-76
2023/07/05 16:02:48;;;;;;;22.48;16.90;;;;;;;;;;5015708;28;20046;-75
2023/07/05 16:05:36;;;;;;;27.63;17.42;;;;;;;;;;5015040;28;20050;-75
2023/07/05 16:08:22;;;;;;;25.30;18.05;;;;;;;;;;5015563;28;20042;-77
2023/07/05 16:11:12;;;;;;;23.50;17.98;;;;;;;;;;5015874;28;20050;-78
2023/07/05 16:13:57;;;;;;;26.92;18.52;;;;;;;;;;5004372;28;20046;-78
2023/07/05 16:16:42;;;;;;;28.80;19.08;;;;;;;;;;5002767;28;20050;-76
2023/07/05 16:19:28;;;;;;;24.50;17.77;;;;;;;;;;5002620;28;20050;-76
2023/07/05 16:22:13;;;;;;;22.75;17.75;;;;;;;;;;5002720;28;20042;-77
2023/07/05 16:24:59;;;;;;;26.70;17.35;;;;;;;;;;5002658;28;20046;-78
2023/07/05 16:27:45;;;;;;;24.33;17.25;;;;;;;;;;5002284;28;20046;-79
2023/07/05 16:30:30;;;;;;;25.55;17.35;;;;;;;;;;4995847;28;20049;-78
2023/07/05 16:33:16;;;;;;;21.65;16.63;;;;;;;;;;5002301;28;20050;-76
2023/07/05 16:36:03;;;;;;;27.50;16.67;;;;;;;;;;4995145;28;20050;-79
2023/07/05 16:38:48;;;;;;;21.17;17.08;;;;;;;;;;4995635;28;20042;-76
2023/07/05 16:41:34;;;;;;;24.33;17.65;;;;;;;;;;4995378;28;20396;-76
2023/07/05 16:44:20;;;;;;;48.78;27.20;;;;;;;;;;5002207;28;20054;-75
2023/07/05 16:47:07;;;;;;;50.25;28.35;;;;;;;;;;5001625;28;20431;-79
2023/07/05 16:49:53;;;;;;;30.67;19.77;;;;;;;;;;5002008;28;20038;-75
2023/07/05 16:52:39;;;;;;;28.13;17.10;;;;;;;;;;5002324;28;20054;-75
2023/07/05 16:55:24;;;;;;;21.92;16.17;;;;;;;;;;5001870;28;20050;-78
2023/07/05 16:58:10;;;;;;;21.05;16.02;;;;;;;;;;4980894;28;20050;-75
2023/07/05 17:01:09;;;;;;;20.60;15.80;;;;;;;;;;4994547;28;20050;-75
2023/07/05 17:03:54;;;;;;;25.80;16.52;;;;;;;;;;4995061;28;20042;-73
2023/07/05 17:06:47;;;;;;;23.85;16.23;;;;;;;;;;5000791;28;20046;-75
2023/07/05 17:09:34;;;;;;;19.65;16.42;;;;;;;;;;4995087;28;20043;-75
2023/07/05 17:12:21;;;;;;;22.67;17.70;;;;;;;;;;5001943;28;20046;-75
2023/07/05 17:15:08;;;;;;;25.38;18.88;;;;;;;;;;5000890;28;20042;-75
2023/07/05 17:17:53;;;;;;;25.88;18.40;;;;;;;;;;4994878;28;20046;-76
2023/07/05 17:21:29;;;;;;;25.33;17.63;;;;;;;;;;5001526;28;20399;-77
2023/07/05 17:24:24;;;;;;;25.40;18.13;;;;;;;;;;4994843;28;20030;-77
2023/07/05 17:27:16;;;;;;;22.70;18.25;;;;;;;;;;4994939;28;20400;-77
2023/07/05 17:30:03;;;;;;;26.52;19.30;;;;;;;;;;5001587;28;20042;-76
2023/07/05 17:32:50;;;;;;;25.45;19.45;;;;;;;;;;5001345;28;20050;-75
2023/07/05 17:35:35;;;;;;;29.35;21.20;;;;;;;;;;5001372;28;20050;-75
2023/07/05 17:38:21;;;;;;;28.13;21.08;;;;;;;;;;4994384;28;20042;-77
2023/07/05 17:45:23;;;;;;;30.98;21.52;;;;;;;;;;4985772;28;20396;-81
2023/07/05 17:48:07;;;;;;;25.83;18.98;;;;;;;;;;4986289;28;20046;-78
2023/07/05 17:50:52;;;;;;;27.17;19.33;;;;;;;;;;4994542;28;20046;-78
2023/07/05 17:53:38;;;;;;;25.20;19.05;;;;;;;;;;4994605;28;20488;-79
2023/07/05 17:56:24;;;;;;;23.25;19.10;;;;;;;;;;4993891;28;20492;-77
2023/07/05 17:59:10;;;;;;;31.60;20.52;;;;;;;;;;4994475;28;20042;-78
2023/07/05 18:01:55;;;;;;;27.58;20.60;;;;;;;;;;4994635;28;20050;-81
2023/07/05 18:04:41;;;;;;;33.53;22.52;;;;;;;;;;5001080;28;20042;-80
2023/07/05 18:07:26;;;;;;;30.65;22.45;;;;;;;;;;4986081;28;20050;-80
2023/07/05 18:10:11;;;;;;;28.95;20.73;;;;;;;;;;5000676;28;20495;-80
2023/07/05 18:12:57;;;;;;;29.63;22.52;;;;;;;;;;4993924;28;20054;-80
2023/07/05 18:15:43;;;;;;;25.95;21.33;;;;;;;;;;5002023;28;20042;-80
2023/07/05 18:18:30;;;;;;;28.55;19.83;;;;;;;;;;4988210;28;20038;-82
2023/07/05 18:21:16;;;;;;;25.65;20.30;;;;;;;;;;4987960;28;20054;-80
2023/07/05 18:24:03;;;;;;;23.05;18.25;;;;;;;;;;4995835;28;20050;-81
2023/07/05 18:26:52;;;;;;;29.05;19.42;;;;;;;;;;5001978;28;20046;-79
2023/07/05 18:29:37;;;;;;;27.42;19.55;;;;;;;;;;4993156;28;20479;-79
2023/07/05 18:32:23;;;;;;;19.85;14.75;;;;;;;;;;5001477;28;20491;-76
2023/07/05 18:35:08;;;;;;;12.85;9.75;;;;;;;;;;4994063;28;20387;-78
2023/07/05 18:37:54;;;;;;;12.35;8.05;;;;;;;;;;4994408;28;20042;-79
2023/07/05 18:40:40;;;;;;;10.32;7.75;;;;;;;;;;5000650;28;20046;-78
2023/07/05 18:43:26;;;;;;;9.18;5.80;;;;;;;;;;4994148;28;20050;-82
2023/07/05 18:46:11;;;;;;;8.65;6.00;;;;;;;;;;5001990;28;20046;-82
2023/07/05 18:48:59;;;;;;;11.10;7.15;;;;;;;;;;4994578;28;20691;-89
2023/07/05 18:51:45;;;;;;;7.75;5.63;;;;;;;;;;4989155;28;20411;-84
2023/07/05 18:54:31;;;;;;;10.93;5.70;;;;;;;;;;4998359;28;20395;-83
2023/07/05 18:57:16;;;;;;;17.05;10.60;;;;;;;;;;4983743;28;20046;-83
2023/07/05 19:00:01;;;;;;;9.98;7.15;;;;;;;;;;4989763;28;20046;-83
2023/07/05 19:02:46;;;;;;;7.38;5.60;;;;;;;;;;5009542;28;20046;-83
2023/07/05 19:05:32;;;;;;;6.90;6.00;;;;;;;;;;5002625;28;20038;-84
2023/07/05 19:08:18;;;;;;;10.35;6.60;;;;;;;;;;4998899;28;20054;-83
2023/07/05 19:11:09;;;;;;;14.73;7.50;;;;;;;;;;4997416;28;20045;-83
2023/07/05 19:13:55;;;;;;;8.52;6.28;;;;;;;;;;4997647;28;20484;-83
2023/07/05 19:16:40;;;;;;;10.70;6.45;;;;;;;;;;4997568;28;20042;-84
2023/07/05 19:19:36;;;;;;;8.32;6.20;;;;;;;;;;4997659;28;20408;-84
2023/07/05 19:22:21;;;;;;;10.82;7.18;;;;;;;;;;4999816;28;20051;-83
2023/07/05 19:25:07;;;;;;;9.10;7.22;;;;;;;;;;4982997;28;20503;-84